sensor_id;sensor_type;location;lat;lon;timestamp;pressure;altitude;pressure_sealevel;temperature;humidity
15382;BME280;7789;51.364;12.358;2023-05-14T00:02:57;100691.09;;;15.98;73.10
15382;BME280;7789;51.364;12.358;2023-05-14T00:08:01;100676.69;;;15.93;73.05
15382;BME280;7789;51.364;12.358;2023-05-14T00:13:04;100676.84;;;15.91;72.64
15382;BME280;7789;51.364;12.358;2023-05-14T00:18:11;100675.78;;;15.84;73.44
15382;BME280;7789;51.364;12.358;2023-05-14T00:23:14;100669.84;;;15.82;73.06
15382;BME280;7789;51.364;12.358;2023-05-14T00:28:19;100659.06;;;15.76;73.87
15382;BME280;7789;51.364;12.358;2023-05-14T00:33:24;100661.16;;;15.72;74.19
15382;BME280;7789;51.364;12.358;2023-05-14T00:38:28;100653.75;;;15.68;74.57
15382;BME280;7789;51.364;12.358;2023-05-14T00:43:31;100655.97;;;15.63;74.66
15382;BME280;7789;51.364;12.358;2023-05-14T00:48:37;100655.47;;;15.59;74.75
15382;BME280;7789;51.364;12.358;2023-05-14T00:53:40;100662.84;;;15.56;75.23
15382;BME280;7789;51.364;12.358;2023-05-14T00:58:43;100653.09;;;15.56;74.73
15382;BME280;7789;51.364;12.358;2023-05-14T01:03:49;100659.09;;;15.58;75.48
15382;BME280;7789;51.364;12.358;2023-05-14T01:09:16;100651.31;;;15.57;75.59
15382;BME280;7789;51.364;12.358;2023-05-14T01:14:33;100649.13;;;15.52;76.07
15382;BME280;7789;51.364;12.358;2023-05-14T01:19:42;100653.09;;;15.56;74.98
15382;BME280;7789;51.364;12.358;2023-05-14T01:24:47;100644.53;;;15.54;75.10
15382;BME280;7789;51.364;12.358;2023-05-14T01:29:56;100658.19;;;15.50;75.01
15382;BME280;7789;51.364;12.358;2023-05-14T01:35:02;100654.03;;;15.47;75.52
15382;BME280;7789;51.364;12.358;2023-05-14T01:40:08;100646.78;;;15.49;75.94
15382;BME280;7789;51.364;12.358;2023-05-14T01:45:13;100640.69;;;15.49;75.58
15382;BME280;7789;51.364;12.358;2023-05-14T01:50:18;100630.84;;;15.51;75.85
15382;BME280;7789;51.364;12.358;2023-05-14T01:55:24;100632.09;;;15.47;75.75
15382;BME280;7789;51.364;12.358;2023-05-14T02:00:27;100623.38;;;15.46;75.76
15382;BME280;7789;51.364;12.358;2023-05-14T02:05:34;100624.66;;;15.42;76.53
15382;BME280;7789;51.364;12.358;2023-05-14T02:10:39;100623.53;;;15.45;76.35
15382;BME280;7789;51.364;12.358;2023-05-14T02:15:49;100621.06;;;15.43;77.21
15382;BME280;7789;51.364;12.358;2023-05-14T02:20:52;100619.91;;;15.46;76.91
15382;BME280;7789;51.364;12.358;2023-05-14T02:25:57;100623.53;;;15.45;77.23
15382;BME280;7789;51.364;12.358;2023-05-14T02:31:00;100618.31;;;15.35;77.87
15382;BME280;7789;51.364;12.358;2023-05-14T02:36:04;100610.50;;;15.43;78.02
15382;BME280;7789;51.364;12.358;2023-05-14T02:41:09;100617.75;;;15.41;78.24
15382;BME280;7789;51.364;12.358;2023-05-14T02:46:12;100618.19;;;15.37;78.20
15382;BME280;7789;51.364;12.358;2023-05-14T02:51:15;100608.94;;;15.33;78.04
15382;BME280;7789;51.364;12.358;2023-05-14T02:56:20;100605.19;;;15.26;78.57
15382;BME280;7789;51.364;12.358;2023-05-14T03:01:24;100601.75;;;15.25;78.73
15382;BME280;7789;51.364;12.358;2023-05-14T03:06:28;100603.41;;;15.26;79.17
15382;BME280;7789;51.364;12.358;2023-05-14T03:11:33;100600.66;;;15.18;79.26
15382;BME280;7789;51.364;12.358;2023-05-14T03:16:36;100600.16;;;15.15;78.98
15382;BME280;7789;51.364;12.358;2023-05-14T03:21:40;100599.97;;;15.16;79.71
15382;BME280;7789;51.364;12.358;2023-05-14T03:26:45;100601.09;;;15.14;80.05
15382;BME280;7789;51.364;12.358;2023-05-14T03:31:48;100601.94;;;15.14;80.77
15382;BME280;7789;51.364;12.358;2023-05-14T03:36:52;100595.31;;;15.10;81.11
15382;BME280;7789;51.364;12.358;2023-05-14T03:41:56;100599.06;;;15.08;82.47
15382;BME280;7789;51.364;12.358;2023-05-14T03:47:00;100591.47;;;15.05;81.91
15382;BME280;7789;51.364;12.358;2023-05-14T03:52:03;100586.22;;;15.05;82.48
15382;BME280;7789;51.364;12.358;2023-05-14T03:57:08;100589.38;;;15.08;82.12
15382;BME280;7789;51.364;12.358;2023-05-14T04:02:11;100581.75;;;15.05;82.38
15382;BME280;7789;51.364;12.358;2023-05-14T04:07:14;100574.69;;;15.06;82.51
15382;BME280;7789;51.364;12.358;2023-05-14T04:12:19;100577.19;;;15.07;82.54
15382;BME280;7789;51.364;12.358;2023-05-14T04:17:23;100574.25;;;15.10;82.51
15382;BME280;7789;51.364;12.358;2023-05-14T04:22:26;100576.72;;;15.12;82.89
15382;BME280;7789;51.364;12.358;2023-05-14T04:27:32;100573.41;;;15.10;83.02
15382;BME280;7789;51.364;12.358;2023-05-14T04:32:35;100580.41;;;15.01;83.15
15382;BME280;7789;51.364;12.358;2023-05-14T04:37:39;100572.13;;;14.96;83.42
15382;BME280;7789;51.364;12.358;2023-05-14T04:42:44;100569.13;;;15.09;83.82
15382;BME280;7789;51.364;12.358;2023-05-14T04:47:47;100571.69;;;15.18;82.96
15382;BME280;7789;51.364;12.358;2023-05-14T04:52:51;100571.75;;;15.36;82.31
15382;BME280;7789;51.364;12.358;2023-05-14T04:57:57;100568.94;;;15.55;81.86
15382;BME280;7789;51.364;12.358;2023-05-14T05:03:01;100568.47;;;15.77;80.93
15382;BME280;7789;51.364;12.358;2023-05-14T05:08:04;100562.72;;;16.32;78.29
15382;BME280;7789;51.364;12.358;2023-05-14T05:13:09;100569.91;;;17.62;73.88
15382;BME280;7789;51.364;12.358;2023-05-14T05:18:12;100572.84;;;17.35;73.68
15382;BME280;7789;51.364;12.358;2023-05-14T05:23:16;100576.31;;;17.36;73.50
15382;BME280;7789;51.364;12.358;2023-05-14T05:28:20;100571.03;;;17.76;71.82
15382;BME280;7789;51.364;12.358;2023-05-14T05:33:24;100563.56;;;20.31;64.16
15382;BME280;7789;51.364;12.358;2023-05-14T05:38:27;100555.16;;;21.90;58.04
15382;BME280;7789;51.364;12.358;2023-05-14T05:43:32;100543.81;;;24.14;51.45
15382;BME280;7789;51.364;12.358;2023-05-14T05:48:35;100552.88;;;25.27;47.59
15382;BME280;7789;51.364;12.358;2023-05-14T05:53:38;100550.31;;;25.69;46.30
15382;BME280;7789;51.364;12.358;2023-05-14T05:58:43;100548.13;;;27.34;42.08
15382;BME280;7789;51.364;12.358;2023-05-14T06:03:46;100553.75;;;28.82;40.23
15382;BME280;7789;51.364;12.358;2023-05-14T06:08:50;100552.75;;;30.76;36.52
15382;BME280;7789;51.364;12.358;2023-05-14T06:13:54;100553.72;;;31.65;34.58
15382;BME280;7789;51.364;12.358;2023-05-14T06:18:58;100554.66;;;32.59;32.38
15382;BME280;7789;51.364;12.358;2023-05-14T06:24:01;100550.31;;;33.29;31.07
15382;BME280;7789;51.364;12.358;2023-05-14T06:29:06;100555.50;;;34.00;29.41
15382;BME280;7789;51.364;12.358;2023-05-14T06:34:14;100553.88;;;33.94;28.39
15382;BME280;7789;51.364;12.358;2023-05-14T06:39:18;100566.75;;;34.82;27.17
15382;BME280;7789;51.364;12.358;2023-05-14T06:44:22;100558.22;;;34.20;28.00
15382;BME280;7789;51.364;12.358;2023-05-14T06:49:27;100535.63;;;33.15;28.33
15382;BME280;7789;51.364;12.358;2023-05-14T06:54:31;100526.13;;;31.10;31.28
15382;BME280;7789;51.364;12.358;2023-05-14T06:59:35;100527.56;;;31.76;31.27
15382;BME280;7789;51.364;12.358;2023-05-14T07:04:39;100522.53;;;31.26;31.15
15382;BME280;7789;51.364;12.358;2023-05-14T07:09:46;100516.16;;;30.47;31.11
15382;BME280;7789;51.364;12.358;2023-05-14T07:14:51;100512.50;;;29.49;32.82
15382;BME280;7789;51.364;12.358;2023-05-14T07:19:54;100526.13;;;30.25;31.03
15382;BME280;7789;51.364;12.358;2023-05-14T07:24:57;100504.59;;;29.59;32.54
15382;BME280;7789;51.364;12.358;2023-05-14T07:30:02;100492.44;;;28.73;33.62
15382;BME280;7789;51.364;12.358;2023-05-14T07:35:06;100494.69;;;27.90;34.12
15382;BME280;7789;51.364;12.358;2023-05-14T07:40:10;100492.22;;;28.12;33.99
15382;BME280;7789;51.364;12.358;2023-05-14T07:45:15;100494.13;;;26.95;35.11
15382;BME280;7789;51.364;12.358;2023-05-14T07:50:18;100480.31;;;26.44;36.85
15382;BME280;7789;51.364;12.358;2023-05-14T07:55:22;100474.63;;;26.34;38.83
15382;BME280;7789;51.364;12.358;2023-05-14T08:00:26;100476.34;;;25.93;38.22
15382;BME280;7789;51.364;12.358;2023-05-14T08:05:32;100477.22;;;25.38;38.89
15382;BME280;7789;51.364;12.358;2023-05-14T08:10:36;100468.19;;;25.32;39.44
15382;BME280;7789;51.364;12.358;2023-05-14T08:15:40;100467.19;;;25.02;39.16
15382;BME280;7789;51.364;12.358;2023-05-14T08:20:44;100461.41;;;24.68;39.13
15382;BME280;7789;51.364;12.358;2023-05-14T08:25:47;100458.66;;;24.24;40.45
15382;BME280;7789;51.364;12.358;2023-05-14T08:30:52;100452.47;;;24.37;40.29
15382;BME280;7789;51.364;12.358;2023-05-14T08:35:55;100453.13;;;24.26;40.37
15382;BME280;7789;51.364;12.358;2023-05-14T08:41:03;100443.00;;;24.34;41.82
15382;BME280;7789;51.364;12.358;2023-05-14T08:46:12;100437.66;;;24.34;43.05
15382;BME280;7789;51.364;12.358;2023-05-14T08:51:15;100433.06;;;24.04;42.58
15382;BME280;7789;51.364;12.358;2023-05-14T08:56:19;100434.72;;;23.72;44.13
15382;BME280;7789;51.364;12.358;2023-05-14T09:01:24;100422.63;;;23.63;44.83
15382;BME280;7789;51.364;12.358;2023-05-14T09:06:28;100422.22;;;23.66;43.09
15382;BME280;7789;51.364;12.358;2023-05-14T09:11:33;100425.13;;;23.39;42.81
15382;BME280;7789;51.364;12.358;2023-05-14T09:16:45;100408.69;;;23.48;44.32
15382;BME280;7789;51.364;12.358;2023-05-14T09:21:49;100413.00;;;23.23;43.57
15382;BME280;7789;51.364;12.358;2023-05-14T09:26:54;100414.03;;;23.22;43.55
15382;BME280;7789;51.364;12.358;2023-05-14T09:32:00;100416.25;;;22.93;43.74
15382;BME280;7789;51.364;12.358;2023-05-14T09:37:07;100424.22;;;22.73;44.11
15382;BME280;7789;51.364;12.358;2023-05-14T09:42:11;100408.00;;;22.75;44.00
15382;BME280;7789;51.364;12.358;2023-05-14T09:47:15;100400.25;;;22.93;43.44
15382;BME280;7789;51.364;12.358;2023-05-14T09:52:19;100393.91;;;23.07;43.11
15382;BME280;7789;51.364;12.358;2023-05-14T09:57:23;100382.66;;;23.11;43.73
15382;BME280;7789;51.364;12.358;2023-05-14T10:02:34;100380.97;;;23.30;43.85
15382;BME280;7789;51.364;12.358;2023-05-14T10:07:43;100370.31;;;23.30;43.35
15382;BME280;7789;51.364;12.358;2023-05-14T10:12:50;100362.69;;;23.46;43.37
15382;BME280;7789;51.364;12.358;2023-05-14T10:17:59;100369.69;;;23.34;41.01
15382;BME280;7789;51.364;12.358;2023-05-14T10:23:05;100371.56;;;23.14;40.79
15382;BME280;7789;51.364;12.358;2023-05-14T10:28:09;100348.13;;;23.03;41.45
15382;BME280;7789;51.364;12.358;2023-05-14T10:33:14;100361.69;;;23.15;40.48
15382;BME280;7789;51.364;12.358;2023-05-14T10:38:21;100342.41;;;22.93;41.83
15382;BME280;7789;51.364;12.358;2023-05-14T10:43:26;100340.13;;;22.97;42.19
15382;BME280;7789;51.364;12.358;2023-05-14T10:48:33;100332.75;;;22.92;41.91
15382;BME280;7789;51.364;12.358;2023-05-14T10:53:40;100332.13;;;23.03;42.06
15382;BME280;7789;51.364;12.358;2023-05-14T10:58:44;100332.34;;;22.95;42.11
15382;BME280;7789;51.364;12.358;2023-05-14T11:03:52;100329.84;;;22.87;42.93
15382;BME280;7789;51.364;12.358;2023-05-14T11:08:57;100316.75;;;22.92;43.08
15382;BME280;7789;51.364;12.358;2023-05-14T11:14:02;100317.97;;;23.29;43.17
15382;BME280;7789;51.364;12.358;2023-05-14T11:19:07;100303.19;;;23.33;43.15
15382;BME280;7789;51.364;12.358;2023-05-14T11:24:12;100311.59;;;23.23;42.61
15382;BME280;7789;51.364;12.358;2023-05-14T11:29:15;100297.63;;;23.34;40.83
15382;BME280;7789;51.364;12.358;2023-05-14T11:34:21;100302.31;;;23.52;40.42
15382;BME280;7789;51.364;12.358;2023-05-14T11:39:24;100309.53;;;23.38;40.18
15382;BME280;7789;51.364;12.358;2023-05-14T11:44:27;100298.28;;;23.04;40.68
15382;BME280;7789;51.364;12.358;2023-05-14T11:49:32;100300.53;;;22.68;40.46
15382;BME280;7789;51.364;12.358;2023-05-14T11:54:38;100298.28;;;22.59;42.74
15382;BME280;7789;51.364;12.358;2023-05-14T11:59:42;100302.78;;;22.39;44.00
15382;BME280;7789;51.364;12.358;2023-05-14T12:04:50;100299.03;;;22.27;44.91
15382;BME280;7789;51.364;12.358;2023-05-14T12:09:54;100305.31;;;22.06;44.15
15382;BME280;7789;51.364;12.358;2023-05-14T12:15:10;100296.31;;;22.07;44.21
15382;BME280;7789;51.364;12.358;2023-05-14T12:20:14;100292.56;;;21.95;44.44
15382;BME280;7789;51.364;12.358;2023-05-14T12:25:19;100293.75;;;21.80;44.93
15382;BME280;7789;51.364;12.358;2023-05-14T12:30:22;100279.66;;;21.45;46.01
15382;BME280;7789;51.364;12.358;2023-05-14T12:35:27;100285.31;;;21.36;46.67
15382;BME280;7789;51.364;12.358;2023-05-14T12:40:31;100274.44;;;21.31;47.11
15382;BME280;7789;51.364;12.358;2023-05-14T12:45:34;100274.63;;;21.23;47.12
15382;BME280;7789;51.364;12.358;2023-05-14T12:50:39;100269.56;;;21.34;47.20
15382;BME280;7789;51.364;12.358;2023-05-14T12:55:42;100266.38;;;21.11;47.07
15382;BME280;7789;51.364;12.358;2023-05-14T13:00:45;100273.47;;;21.04;47.28
15382;BME280;7789;51.364;12.358;2023-05-14T13:05:51;100263.47;;;21.06;48.46
15382;BME280;7789;51.364;12.358;2023-05-14T13:10:55;100260.78;;;21.06;48.31
15382;BME280;7789;51.364;12.358;2023-05-14T13:15:59;100269.84;;;20.84;46.95
15382;BME280;7789;51.364;12.358;2023-05-14T13:21:04;100266.59;;;20.62;45.67
15382;BME280;7789;51.364;12.358;2023-05-14T13:26:07;100258.22;;;20.65;46.32
15382;BME280;7789;51.364;12.358;2023-05-14T13:31:12;100250.53;;;20.76;46.08
15382;BME280;7789;51.364;12.358;2023-05-14T13:36:18;100257.31;;;20.78;45.95
15382;BME280;7789;51.364;12.358;2023-05-14T13:41:21;100248.94;;;20.81;46.76
15382;BME280;7789;51.364;12.358;2023-05-14T13:46:25;100240.03;;;20.89;46.02
15382;BME280;7789;51.364;12.358;2023-05-14T13:51:29;100231.53;;;20.79;46.21
15382;BME280;7789;51.364;12.358;2023-05-14T13:56:33;100239.13;;;20.82;46.39
15382;BME280;7789;51.364;12.358;2023-05-14T14:01:36;100226.44;;;20.77;45.99
15382;BME280;7789;51.364;12.358;2023-05-14T14:06:44;100226.13;;;20.93;46.86
15382;BME280;7789;51.364;12.358;2023-05-14T14:11:47;100220.91;;;21.06;46.95
15382;BME280;7789;51.364;12.358;2023-05-14T14:16:50;100204.97;;;21.06;47.39
15382;BME280;7789;51.364;12.358;2023-05-14T14:21:55;100210.53;;;21.18;46.88
15382;BME280;7789;51.364;12.358;2023-05-14T14:26:58;100202.19;;;21.27;46.62
15382;BME280;7789;51.364;12.358;2023-05-14T14:32:03;100185.50;;;21.40;46.23
15382;BME280;7789;51.364;12.358;2023-05-14T14:37:10;100176.09;;;21.50;46.38
15382;BME280;7789;51.364;12.358;2023-05-14T14:42:13;100170.59;;;21.58;47.10
15382;BME280;7789;51.364;12.358;2023-05-14T14:47:16;100162.41;;;21.53;46.70
15382;BME280;7789;51.364;12.358;2023-05-14T14:52:21;100152.19;;;21.57;45.84
15382;BME280;7789;51.364;12.358;2023-05-14T14:57:27;100157.56;;;21.63;46.59
15382;BME280;7789;51.364;12.358;2023-05-14T15:02:30;100155.03;;;21.55;45.75
15382;BME280;7789;51.364;12.358;2023-05-14T15:07:35;100153.13;;;21.36;46.47
15382;BME280;7789;51.364;12.358;2023-05-14T15:12:41;100150.50;;;21.43;47.04
15382;BME280;7789;51.364;12.358;2023-05-14T15:17:45;100148.03;;;21.41;47.25
15382;BME280;7789;51.364;12.358;2023-05-14T15:22:50;100143.13;;;21.45;47.39
15382;BME280;7789;51.364;12.358;2023-05-14T15:27:54;100134.53;;;21.43;47.91
15382;BME280;7789;51.364;12.358;2023-05-14T15:32:57;100132.91;;;21.48;48.34
15382;BME280;7789;51.364;12.358;2023-05-14T15:38:05;100123.66;;;21.31;48.82
15382;BME280;7789;51.364;12.358;2023-05-14T15:43:08;100125.31;;;21.39;48.77
15382;BME280;7789;51.364;12.358;2023-05-14T15:48:15;100112.19;;;21.31;48.96
15382;BME280;7789;51.364;12.358;2023-05-14T15:53:23;100110.34;;;21.25;48.79
15382;BME280;7789;51.364;12.358;2023-05-14T15:58:28;100101.50;;;21.18;49.28
15382;BME280;7789;51.364;12.358;2023-05-14T16:03:34;100111.72;;;21.08;49.13
15382;BME280;7789;51.364;12.358;2023-05-14T16:08:39;100095.88;;;20.93;49.43
15382;BME280;7789;51.364;12.358;2023-05-14T16:13:47;100095.28;;;20.98;49.54
15382;BME280;7789;51.364;12.358;2023-05-14T16:18:50;100096.94;;;20.99;49.73
15382;BME280;7789;51.364;12.358;2023-05-14T16:23:55;100096.72;;;20.94;49.64
15382;BME280;7789;51.364;12.358;2023-05-14T16:28:58;100085.88;;;20.89;49.58
15382;BME280;7789;51.364;12.358;2023-05-14T16:34:01;100091.13;;;20.82;50.15
15382;BME280;7789;51.364;12.358;2023-05-14T16:39:08;100097.19;;;20.76;49.87
15382;BME280;7789;51.364;12.358;2023-05-14T16:44:12;100090.66;;;20.72;49.25
15382;BME280;7789;51.364;12.358;2023-05-14T16:49:15;100083.69;;;20.71;49.23
15382;BME280;7789;51.364;12.358;2023-05-14T16:54:24;100086.75;;;20.68;49.44
15382;BME280;7789;51.364;12.358;2023-05-14T16:59:33;100087.28;;;20.58;48.95
15382;BME280;7789;51.364;12.358;2023-05-14T17:04:37;100082.59;;;20.53;48.67
15382;BME280;7789;51.364;12.358;2023-05-14T17:09:44;100088.50;;;20.49;49.01
15382;BME280;7789;51.364;12.358;2023-05-14T17:14:47;100090.69;;;20.45;48.37
15382;BME280;7789;51.364;12.358;2023-05-14T17:19:51;100093.28;;;20.32;48.06
15382;BME280;7789;51.364;12.358;2023-05-14T17:24:56;100097.34;;;20.28;48.08
15382;BME280;7789;51.364;12.358;2023-05-14T17:29:59;100089.94;;;20.24;47.98
15382;BME280;7789;51.364;12.358;2023-05-14T17:35:03;100099.13;;;20.21;48.37
15382;BME280;7789;51.364;12.358;2023-05-14T17:40:09;100100.84;;;20.08;50.46
15382;BME280;7789;51.364;12.358;2023-05-14T17:45:13;100109.66;;;19.87;51.78
15382;BME280;7789;51.364;12.358;2023-05-14T17:50:21;100113.56;;;19.70;52.67
15382;BME280;7789;51.364;12.358;2023-05-14T17:55:26;100118.13;;;19.55;52.39
15382;BME280;7789;51.364;12.358;2023-05-14T18:00:29;100110.00;;;19.42;52.52
15382;BME280;7789;51.364;12.358;2023-05-14T18:05:33;100117.25;;;19.34;52.96
15382;BME280;7789;51.364;12.358;2023-05-14T18:10:38;100115.53;;;19.26;53.21
15382;BME280;7789;51.364;12.358;2023-05-14T18:15:41;100115.47;;;19.20;53.36
15382;BME280;7789;51.364;12.358;2023-05-14T18:20:45;100118.22;;;19.12;53.77
15382;BME280;7789;51.364;12.358;2023-05-14T18:25:49;100121.78;;;19.04;54.90
15382;BME280;7789;51.364;12.358;2023-05-14T18:30:53;100118.41;;;18.96;55.00
15382;BME280;7789;51.364;12.358;2023-05-14T18:35:57;100117.78;;;18.94;55.61
15382;BME280;7789;51.364;12.358;2023-05-14T18:41:01;100115.50;;;18.91;56.52
15382;BME280;7789;51.364;12.358;2023-05-14T18:46:05;100117.50;;;18.89;57.52
15382;BME280;7789;51.364;12.358;2023-05-14T18:51:08;100122.06;;;18.80;57.96
15382;BME280;7789;51.364;12.358;2023-05-14T18:56:14;100119.00;;;18.77;58.37
15382;BME280;7789;51.364;12.358;2023-05-14T19:01:17;100122.34;;;18.71;59.36
15382;BME280;7789;51.364;12.358;2023-05-14T19:06:22;100119.63;;;18.65;59.98
15382;BME280;7789;51.364;12.358;2023-05-14T19:11:36;100128.94;;;18.61;61.27
15382;BME280;7789;51.364;12.358;2023-05-14T19:16:46;100130.03;;;18.52;61.17
15382;BME280;7789;51.364;12.358;2023-05-14T19:21:51;100125.66;;;18.44;61.80
15382;BME280;7789;51.364;12.358;2023-05-14T19:26:58;100119.88;;;18.41;62.76
15382;BME280;7789;51.364;12.358;2023-05-14T19:32:04;100115.31;;;18.35;63.02
15382;BME280;7789;51.364;12.358;2023-05-14T19:37:07;100119.50;;;18.29;64.16
15382;BME280;7789;51.364;12.358;2023-05-14T19:42:12;100111.44;;;18.23;64.17
15382;BME280;7789;51.364;12.358;2023-05-14T19:47:15;100114.81;;;18.17;64.49
15382;BME280;7789;51.364;12.358;2023-05-14T19:52:19;100099.63;;;18.11;65.03
15382;BME280;7789;51.364;12.358;2023-05-14T19:57:23;100098.72;;;18.04;65.79
15382;BME280;7789;51.364;12.358;2023-05-14T20:02:27;100091.31;;;17.99;65.86
15382;BME280;7789;51.364;12.358;2023-05-14T20:07:31;100091.19;;;17.93;66.41
15382;BME280;7789;51.364;12.358;2023-05-14T20:12:36;100087.63;;;17.86;66.95
15382;BME280;7789;51.364;12.358;2023-05-14T20:17:42;100084.06;;;17.79;67.15
15382;BME280;7789;51.364;12.358;2023-05-14T20:22:45;100075.38;;;17.70;68.33
15382;BME280;7789;51.364;12.358;2023-05-14T20:27:50;100077.44;;;17.60;69.57
15382;BME280;7789;51.364;12.358;2023-05-14T20:32:54;100077.03;;;17.49;69.19
15382;BME280;7789;51.364;12.358;2023-05-14T20:37:58;100076.63;;;17.37;70.06
15382;BME280;7789;51.364;12.358;2023-05-14T20:43:05;100070.88;;;17.26;71.11
15382;BME280;7789;51.364;12.358;2023-05-14T20:48:08;100068.47;;;17.16;71.13
15382;BME280;7789;51.364;12.358;2023-05-14T20:53:15;100067.69;;;17.08;71.80
15382;BME280;7789;51.364;12.358;2023-05-14T20:58:20;100068.75;;;16.99;72.69
15382;BME280;7789;51.364;12.358;2023-05-14T21:03:25;100048.81;;;16.88;73.60
15382;BME280;7789;51.364;12.358;2023-05-14T21:08:29;100047.22;;;16.79;74.53
15382;BME280;7789;51.364;12.358;2023-05-14T21:13:35;100039.34;;;16.72;75.73
15382;BME280;7789;51.364;12.358;2023-05-14T21:18:39;100034.09;;;16.64;76.24
15382;BME280;7789;51.364;12.358;2023-05-14T21:23:42;100039.56;;;16.54;76.77
15382;BME280;7789;51.364;12.358;2023-05-14T21:28:47;100040.25;;;16.48;77.49
15382;BME280;7789;51.364;12.358;2023-05-14T21:33:50;100039.28;;;16.41;78.51
15382;BME280;7789;51.364;12.358;2023-05-14T21:38:54;100040.63;;;16.37;77.61
15382;BME280;7789;51.364;12.358;2023-05-14T21:43:58;100047.88;;;16.35;78.40
15382;BME280;7789;51.364;12.358;2023-05-14T21:49:02;100047.72;;;16.29;79.38
15382;BME280;7789;51.364;12.358;2023-05-14T21:54:06;100049.53;;;16.20;79.21
15382;BME280;7789;51.364;12.358;2023-05-14T21:59:11;100051.22;;;16.13;80.21
15382;BME280;7789;51.364;12.358;2023-05-14T22:04:15;100047.59;;;16.06;80.08
15382;BME280;7789;51.364;12.358;2023-05-14T22:09:18;100048.28;;;16.00;81.41
15382;BME280;7789;51.364;12.358;2023-05-14T22:14:23;100049.94;;;15.93;82.58
15382;BME280;7789;51.364;12.358;2023-05-14T22:19:28;100047.31;;;15.85;82.75
15382;BME280;7789;51.364;12.358;2023-05-14T22:24:32;100049.28;;;15.83;83.45
15382;BME280;7789;51.364;12.358;2023-05-14T22:29:36;100047.00;;;15.80;84.66
15382;BME280;7789;51.364;12.358;2023-05-14T22:34:40;100046.50;;;15.77;85.36
15382;BME280;7789;51.364;12.358;2023-05-14T22:39:43;100035.44;;;15.73;85.47
15382;BME280;7789;51.364;12.358;2023-05-14T22:44:48;100031.50;;;15.69;86.02
15382;BME280;7789;51.364;12.358;2023-05-14T22:49:51;100032.53;;;15.60;86.04
15382;BME280;7789;51.364;12.358;2023-05-14T22:54:54;100023.13;;;15.50;87.94
15382;BME280;7789;51.364;12.358;2023-05-14T22:59:59;100022.44;;;15.48;88.35
15382;BME280;7789;51.364;12.358;2023-05-14T23:05:03;100031.69;;;15.44;89.12
15382;BME280;7789;51.364;12.358;2023-05-14T23:10:07;100026.25;;;15.37;89.21
15382;BME280;7789;51.364;12.358;2023-05-14T23:15:11;100009.13;;;15.33;90.41
15382;BME280;7789;51.364;12.358;2023-05-14T23:20:17;99989.03;;;15.24;90.91
15382;BME280;7789;51.364;12.358;2023-05-14T23:25:21;99991.31;;;15.19;91.17
15382;BME280;7789;51.364;12.358;2023-05-14T23:30:25;99984.06;;;15.13;91.82
15382;BME280;7789;51.364;12.358;2023-05-14T23:35:32;99968.25;;;15.05;92.44
15382;BME280;7789;51.364;12.358;2023-05-14T23:40:36;99955.09;;;14.97;93.33
15382;BME280;7789;51.364;12.358;2023-05-14T23:45:41;99958.53;;;14.90;94.14
15382;BME280;7789;51.364;12.358;2023-05-14T23:50:44;99949.81;;;14.82;94.92
15382;BME280;7789;51.364;12.358;2023-05-14T23:55:47;99954.09;;;14.75;95.20
